createdAt,value
2018-07-10T06:52:42.903Z,15.95
2018-07-10T06:55:14.960Z,15.34
2018-07-10T06:57:52.786Z,15.16
2018-07-10T07:00:21.892Z,15.21
2018-07-10T07:02:51.045Z,15.30
2018-07-10T07:05:20.133Z,15.37
2018-07-10T07:07:49.471Z,15.16
2018-07-10T07:10:18.666Z,15.21
2018-07-10T07:12:48.109Z,15.17
2018-07-10T07:15:19.033Z,15.21
2018-07-10T07:17:49.304Z,15.25
2018-07-10T07:20:20.121Z,15.32
2018-07-10T07:22:50.281Z,15.36
2018-07-10T07:25:19.429Z,15.42
2018-07-10T07:27:48.545Z,15.39
2018-07-10T07:30:17.729Z,15.49
2018-07-10T07:32:46.972Z,15.46
2018-07-10T07:35:16.256Z,15.44
2018-07-10T07:37:45.381Z,15.39
2018-07-10T07:40:14.466Z,15.36
2018-07-10T07:42:43.564Z,15.51
2018-07-10T07:45:12.676Z,15.56
2018-07-10T07:47:41.829Z,15.76
2018-07-10T07:50:10.930Z,15.84
2018-07-10T07:52:40.137Z,15.96
2018-07-10T07:55:09.216Z,16.13
2018-07-10T07:57:38.315Z,16.10
2018-07-10T08:00:07.438Z,16.20
2018-07-10T08:02:36.577Z,16.26
2018-07-10T08:05:05.757Z,16.15
2018-07-10T08:07:34.857Z,16.02
2018-07-10T08:10:03.986Z,16.13
2018-07-10T08:12:33.088Z,16.15
2018-07-10T08:15:03.616Z,16.14
2018-07-10T08:17:36.208Z,16.09
2018-07-10T08:20:06.230Z,16.15
2018-07-10T08:22:35.354Z,16.04
2018-07-10T08:25:05.835Z,15.98
2018-07-10T08:27:36.730Z,16.01
2018-07-10T08:30:05.958Z,16.05
2018-07-10T08:32:36.434Z,16.12
2018-07-10T08:35:05.584Z,16.18
2018-07-10T08:37:34.673Z,16.19
2018-07-10T08:40:03.791Z,16.22
2018-07-10T08:42:32.948Z,16.29
2018-07-10T08:45:02.102Z,16.19
2018-07-10T08:47:31.223Z,16.24
2018-07-10T08:50:00.341Z,16.26
2018-07-10T08:52:29.456Z,16.32
2018-07-10T08:54:58.592Z,16.34
2018-07-10T08:57:28.412Z,16.33
2018-07-10T08:59:57.915Z,16.33
2018-07-10T09:02:26.978Z,16.47
2018-07-10T09:04:56.106Z,16.33
2018-07-10T09:07:25.224Z,16.47
2018-07-10T09:09:54.350Z,16.46
2018-07-10T09:12:23.469Z,16.38
2018-07-10T09:14:52.618Z,16.48
2018-07-10T09:17:21.713Z,16.63
2018-07-10T09:19:50.861Z,16.49
2018-07-10T09:22:20.005Z,16.40
2018-07-10T09:24:52.151Z,16.42
2018-07-10T09:27:30.048Z,16.29
2018-07-10T09:29:59.204Z,16.34
2018-07-10T09:32:33.707Z,16.38
2018-07-10T09:35:02.807Z,16.32
2018-07-10T09:37:38.237Z,16.47
2018-07-10T09:40:12.659Z,16.29
2018-07-10T09:43:15.229Z,16.18
2018-07-10T09:45:44.369Z,16.21
2018-07-10T09:48:13.456Z,16.24
2018-07-10T09:50:42.670Z,16.24
2018-07-10T09:53:11.803Z,16.34
2018-07-10T09:55:40.957Z,16.36
2018-07-10T09:58:11.645Z,16.41
2018-07-10T10:00:46.013Z,16.51
2018-07-10T10:03:15.136Z,16.38
2018-07-10T10:05:45.253Z,16.28
2018-07-10T10:08:14.380Z,16.27
2018-07-10T10:10:43.457Z,16.49
2018-07-10T10:13:12.591Z,16.64
2018-07-10T10:15:42.009Z,16.65
2018-07-10T10:18:11.178Z,16.65
2018-07-10T10:20:41.796Z,16.63
2018-07-10T10:23:12.973Z,16.52
2018-07-10T10:25:43.552Z,16.54
2018-07-10T10:28:12.588Z,16.59
2018-07-10T10:30:41.676Z,16.62
2018-07-10T10:33:11.392Z,16.34
2018-07-10T10:35:40.544Z,16.38
2018-07-10T10:38:09.620Z,16.43
2018-07-10T10:40:40.092Z,16.65
2018-07-10T10:43:12.199Z,16.68
2018-07-10T10:45:43.912Z,16.74
2018-07-10T10:48:15.149Z,16.76
2018-07-10T10:50:51.485Z,16.72
2018-07-10T10:53:21.455Z,16.91
2018-07-10T10:55:50.597Z,16.76
2018-07-10T10:58:21.439Z,16.82
2018-07-10T11:00:50.629Z,16.67
2018-07-10T11:03:19.799Z,16.91
2018-07-10T11:05:48.907Z,16.73
2018-07-10T11:08:19.418Z,16.87
2018-07-10T11:10:48.660Z,17.00
2018-07-10T11:13:18.504Z,16.84
2018-07-10T11:15:49.757Z,16.75
2018-07-10T11:18:30.601Z,16.84
2018-07-10T11:21:37.663Z,16.88
2018-07-10T11:24:07.402Z,16.79
2018-07-10T11:26:41.206Z,16.82
2018-07-10T11:29:10.824Z,16.76
2018-07-10T11:31:41.264Z,16.80
2018-07-10T11:34:10.381Z,16.75
2018-07-10T11:36:39.476Z,16.65
2018-07-10T11:39:11.273Z,16.85
2018-07-10T11:41:44.936Z,16.69
2018-07-10T11:44:14.050Z,16.72
2018-07-10T11:46:43.131Z,16.68
2018-07-10T11:49:12.235Z,16.86
2018-07-10T11:51:41.373Z,16.81
2018-07-10T11:54:10.485Z,16.87
2018-07-10T11:56:39.653Z,16.89
2018-07-10T11:59:08.822Z,16.88
2018-07-10T12:01:38.973Z,16.91
2018-07-10T12:04:08.109Z,16.99
2018-07-10T12:06:45.888Z,17.02
2018-07-10T12:18:53.713Z,16.97
2018-07-10T12:21:23.133Z,16.51
2018-07-10T12:23:52.575Z,16.59
2018-07-10T12:26:22.542Z,16.63
2018-07-10T12:28:52.153Z,16.57
2018-07-10T12:31:21.279Z,16.59
2018-07-10T12:33:50.365Z,16.65
2018-07-10T12:36:19.476Z,16.82
2018-07-10T12:38:48.582Z,16.82
2018-07-10T12:41:17.680Z,16.54
2018-07-10T12:43:46.777Z,16.35
2018-07-10T12:46:15.883Z,16.37
2018-07-10T12:48:45.008Z,16.34
2018-07-10T12:51:14.136Z,16.43
2018-07-10T12:53:43.245Z,16.51
2018-07-10T12:56:12.535Z,16.73
2018-07-10T12:58:43.088Z,16.88
2018-07-10T13:01:12.241Z,16.95
2018-07-10T13:03:41.349Z,16.95
2018-07-10T13:06:10.477Z,16.92
2018-07-10T13:08:39.574Z,16.77
2018-07-10T13:11:08.699Z,16.56
2018-07-10T13:13:38.786Z,16.48
2018-07-10T13:16:08.350Z,16.40
2018-07-10T13:18:37.771Z,16.22
2018-07-10T13:21:07.543Z,16.82
2018-07-10T13:23:37.719Z,16.79
2018-07-10T13:26:07.737Z,16.60
2018-07-10T13:28:37.891Z,16.60
2018-07-10T13:31:07.982Z,16.65
2018-07-10T13:33:37.580Z,16.68
2018-07-10T13:36:07.661Z,16.66
2018-07-10T13:38:36.779Z,16.48
2018-07-10T13:41:05.872Z,16.30
2018-07-10T13:43:34.984Z,16.46
2018-07-10T13:46:04.073Z,16.44
2018-07-10T13:48:33.176Z,16.46
2018-07-10T13:51:02.259Z,16.52
2018-07-10T13:53:31.364Z,16.58
2018-07-10T13:56:00.478Z,16.97
2018-07-10T13:58:31.464Z,17.25
2018-07-10T14:01:08.308Z,17.55
2018-07-10T14:03:37.933Z,17.85
2018-07-10T14:06:07.441Z,17.85
2018-07-10T14:08:36.582Z,17.83
2018-07-10T14:11:05.688Z,17.78
2018-07-10T14:13:34.801Z,17.59
2018-07-10T14:16:03.998Z,17.55
2018-07-10T14:18:33.123Z,17.53
2018-07-10T14:21:03.896Z,17.45
2018-07-10T14:23:33.037Z,17.36
2018-07-10T14:26:02.140Z,17.36
2018-07-10T14:28:31.221Z,17.47
2018-07-10T14:31:00.476Z,17.54
2018-07-10T14:33:29.565Z,17.51
2018-07-10T14:35:58.666Z,17.39
2018-07-10T14:38:29.485Z,17.07
2018-07-10T14:41:00.269Z,16.81
2018-07-10T14:43:33.284Z,16.81
2018-07-10T14:46:07.820Z,17.01
2018-07-10T14:48:45.694Z,17.02
2018-07-10T14:51:17.928Z,16.93
2018-07-10T14:53:47.112Z,16.99
2018-07-10T14:56:17.021Z,17.03
2018-07-10T14:58:46.246Z,16.88
2018-07-10T15:01:16.053Z,16.63
2018-07-10T15:03:45.124Z,16.45
2018-07-10T15:06:14.253Z,16.32
2018-07-10T15:08:43.496Z,16.15
2018-07-10T15:11:12.612Z,16.17
2018-07-10T15:13:53.067Z,16.25
2018-07-10T15:16:22.202Z,16.16
2018-07-10T15:18:52.312Z,16.32
2018-07-10T15:21:23.068Z,16.52
2018-07-10T15:23:52.215Z,16.78
2018-07-10T15:26:21.339Z,16.82
2018-07-10T15:28:50.440Z,16.89
2018-07-10T15:31:19.535Z,17.00
2018-07-10T15:33:48.630Z,16.88
2018-07-10T15:36:18.401Z,16.94
2018-07-10T15:38:47.501Z,16.97
2018-07-10T15:41:16.712Z,16.96
2018-07-10T15:43:46.128Z,16.99
2018-07-10T15:46:15.331Z,17.12
2018-07-10T15:48:44.428Z,17.28
2018-07-10T15:51:13.935Z,17.47
2018-07-10T15:53:43.008Z,17.68
2018-07-10T15:56:12.128Z,17.75
2018-07-10T15:58:41.279Z,17.72
2018-07-10T16:01:10.361Z,17.79
2018-07-10T16:03:39.457Z,17.91
2018-07-10T16:06:08.600Z,18.07
2018-07-10T16:08:38.516Z,18.11
2018-07-10T16:11:07.671Z,18.13
2018-07-10T16:13:39.680Z,18.04
2018-07-10T16:16:10.074Z,17.91
2018-07-10T16:18:41.396Z,18.02
2018-07-10T16:21:11.165Z,17.99
2018-07-10T16:23:40.325Z,18.06
2018-07-10T16:26:15.108Z,18.29
2018-07-10T16:28:44.683Z,18.25
2018-07-10T16:31:18.513Z,18.35
2018-07-10T16:33:47.596Z,18.47
2018-07-10T16:36:17.437Z,18.48
2018-07-10T16:38:46.596Z,18.34
2018-07-10T16:41:22.633Z,18.25
2018-07-10T16:43:52.652Z,18.31
2018-07-10T16:46:24.069Z,18.02
2018-07-10T16:48:59.276Z,17.92
2018-07-10T16:51:31.745Z,17.99
2018-07-10T16:54:01.953Z,17.97
2018-07-10T16:56:31.049Z,17.98
2018-07-10T16:59:01.133Z,17.92
2018-07-10T17:01:30.220Z,17.76
2018-07-10T17:04:01.330Z,17.50
2018-07-10T17:06:30.400Z,17.44
2018-07-10T17:08:59.532Z,17.39
2018-07-10T17:11:28.608Z,17.40
2018-07-10T17:13:57.711Z,17.31
2018-07-10T17:16:27.652Z,17.33
2018-07-10T17:18:57.018Z,17.35
2018-07-10T17:21:27.523Z,17.38
2018-07-10T17:23:57.838Z,17.48
2018-07-10T17:26:26.912Z,17.55
2018-07-10T17:28:56.029Z,17.70
2018-07-10T17:31:25.124Z,17.77
2018-07-10T17:33:54.243Z,17.68
2018-07-10T17:36:23.327Z,17.63
2018-07-10T17:38:52.426Z,17.63
2018-07-10T17:41:21.529Z,17.40
2018-07-10T17:43:50.648Z,17.33
2018-07-10T17:46:19.792Z,17.30
2018-07-10T17:48:48.915Z,17.30
2018-07-10T17:51:18.024Z,17.17
2018-07-10T17:53:47.099Z,17.15
2018-07-10T17:56:16.219Z,17.25
2018-07-10T17:58:45.317Z,17.13
2018-07-10T18:01:14.425Z,17.15
2018-07-10T18:03:43.512Z,17.34
2018-07-10T18:06:12.651Z,17.31
2018-07-10T18:08:41.716Z,17.16
2018-07-10T18:11:10.848Z,17.15
2018-07-10T18:13:39.928Z,17.07
2018-07-10T18:16:09.411Z,17.10
2018-07-10T18:18:38.484Z,17.08
2018-07-10T18:21:07.582Z,16.78
2018-07-10T18:23:36.921Z,16.60
2018-07-10T18:26:06.041Z,16.47
2018-07-10T18:28:35.107Z,16.21
2018-07-10T18:31:04.213Z,16.85
2018-07-10T18:33:33.292Z,16.47
2018-07-10T18:36:02.798Z,16.39
2018-07-10T18:38:31.998Z,16.28
2018-07-10T18:41:02.151Z,16.17
2018-07-10T18:43:31.240Z,16.18
2018-07-10T18:46:00.343Z,16.10
2018-07-10T18:48:29.627Z,16.26
2018-07-10T18:50:58.625Z,16.58
2018-07-10T18:53:27.816Z,16.54
2018-07-10T18:55:56.956Z,16.50
2018-07-10T18:58:29.640Z,16.51
2018-07-10T19:01:04.885Z,16.60
2018-07-10T19:03:35.574Z,16.34
2018-07-10T19:06:08.357Z,16.40
2018-07-10T19:08:38.972Z,16.42
2018-07-10T19:11:08.751Z,16.57
2018-07-10T19:13:37.892Z,16.67
2018-07-10T19:16:06.982Z,16.62
2018-07-10T19:18:36.109Z,16.62
2018-07-10T19:21:32.784Z,16.82
2018-07-10T19:24:05.465Z,16.83
2018-07-10T19:26:36.668Z,16.70
2018-07-10T19:29:11.747Z,16.69
2018-07-10T19:31:40.856Z,16.68
2018-07-10T19:34:10.021Z,16.71
2018-07-10T19:36:39.121Z,16.80
2018-07-10T19:39:08.608Z,16.79
2018-07-10T19:41:37.692Z,16.70
2018-07-10T19:44:06.809Z,16.68
2018-07-10T19:46:36.536Z,16.53
2018-07-10T19:49:06.444Z,16.43
2018-07-10T19:51:35.553Z,16.29
2018-07-10T19:54:08.392Z,16.19
2018-07-10T19:56:37.614Z,16.25
2018-07-10T19:59:07.794Z,16.40
2018-07-10T20:01:50.750Z,16.49
2018-07-10T20:04:24.809Z,16.45
2018-07-10T20:07:15.175Z,16.51
2018-07-10T20:09:47.609Z,16.53
2018-07-10T20:12:20.284Z,16.71
2018-07-10T20:14:58.521Z,16.83
2018-07-10T20:17:31.127Z,16.92
2018-07-10T20:20:08.536Z,16.94
2018-07-10T20:23:17.281Z,16.85
2018-07-10T20:26:03.448Z,16.81
2018-07-10T20:28:42.237Z,16.83
2018-07-10T20:31:26.035Z,16.89
2018-07-10T20:34:51.904Z,16.89
2018-07-10T20:37:25.974Z,16.88
2018-07-10T20:39:55.140Z,16.91
2018-07-10T20:42:24.648Z,16.94
2018-07-10T20:44:59.747Z,17.01
2018-07-10T20:47:40.445Z,16.99
2018-07-10T20:50:09.564Z,16.98
2018-07-10T20:52:46.596Z,16.82
2018-07-10T20:55:15.758Z,16.85
2018-07-10T20:58:00.627Z,16.96
2018-07-10T21:00:34.726Z,16.86
2018-07-10T21:04:13.884Z,16.72
2018-07-10T21:07:01.604Z,16.67
2018-07-10T21:10:43.960Z,16.68
2018-07-10T21:13:19.496Z,16.58
2018-07-10T21:16:02.499Z,16.66
2018-07-10T21:18:45.552Z,16.66
2018-07-10T21:21:26.833Z,16.52
2018-07-10T21:24:02.296Z,16.39
2018-07-10T21:27:05.468Z,16.43
2018-07-10T21:29:46.889Z,16.51
2018-07-10T21:32:28.788Z,16.51
2018-07-10T21:35:02.081Z,16.56
2018-07-10T21:37:40.408Z,16.51
2018-07-10T21:40:24.486Z,16.32
2018-07-10T21:43:10.365Z,16.09
2018-07-10T21:45:58.201Z,16.07
2018-07-10T21:48:40.597Z,16.06
2018-07-10T21:51:09.748Z,16.00
2018-07-10T21:53:38.876Z,15.96
2018-07-10T21:56:08.054Z,15.92
2018-07-10T21:58:37.237Z,15.89
2018-07-10T22:01:49.805Z,15.87
2018-07-10T22:04:21.031Z,15.75
2018-07-10T22:06:52.415Z,15.95
2018-07-10T22:09:23.953Z,16.04
2018-07-10T22:11:53.374Z,16.01
2018-07-10T22:14:22.661Z,16.02
2018-07-10T22:16:51.776Z,15.90
2018-07-10T22:19:25.618Z,16.03
2018-07-10T22:21:55.603Z,16.11
2018-07-10T22:24:26.168Z,16.17
2018-07-10T22:26:58.037Z,16.23
2018-07-10T22:29:32.876Z,16.20
2018-07-10T22:32:06.160Z,16.11
2018-07-10T22:34:35.287Z,16.16
2018-07-10T22:37:04.392Z,16.20
2018-07-10T22:39:33.837Z,16.24
2018-07-10T22:42:02.973Z,16.17
2018-07-10T22:44:35.396Z,16.14
2018-07-10T22:47:05.201Z,16.09
2018-07-10T22:49:34.260Z,16.05
2018-07-10T22:52:04.053Z,15.97
2018-07-10T22:54:34.860Z,15.78
2018-07-10T22:57:06.400Z,15.65
2018-07-10T22:59:35.477Z,15.73
2018-07-10T23:02:04.572Z,15.74
2018-07-10T23:04:33.376Z,15.66
2018-07-10T23:07:02.203Z,15.72
2018-07-10T23:09:31.006Z,15.74
2018-07-10T23:11:59.908Z,15.74
2018-07-10T23:14:28.721Z,15.66
2018-07-10T23:16:57.584Z,15.65
2018-07-10T23:19:27.278Z,15.77
2018-07-10T23:21:56.088Z,15.76
2018-07-10T23:24:24.904Z,15.77
2018-07-10T23:26:53.706Z,15.91
2018-07-10T23:29:35.912Z,16.03
2018-07-10T23:32:05.970Z,16.08
2018-07-10T23:34:34.800Z,16.11
2018-07-10T23:37:05.480Z,16.07
2018-07-10T23:39:45.135Z,15.91
2018-07-10T23:42:37.163Z,15.87
2018-07-10T23:45:09.888Z,15.80
2018-07-10T23:47:40.792Z,15.86
2018-07-10T23:50:17.491Z,15.84
2018-07-10T23:53:52.868Z,15.85
2018-07-10T23:56:22.144Z,15.69
2018-07-10T23:58:51.567Z,15.76
